createdAt,value
2022-11-29T00:00:23.648Z,98680.69
2022-11-29T00:01:28.893Z,98678.19
2022-11-29T00:02:31.943Z,98676.31
2022-11-29T00:03:35.209Z,98674.53
2022-11-29T00:04:38.103Z,98670.03
2022-11-29T00:05:41.120Z,98677.94
2022-11-29T00:08:04.025Z,98671.94
2022-11-29T00:09:11.846Z,98670.56
2022-11-29T00:10:14.932Z,98662.28
2022-11-29T00:11:47.750Z,98670.88
2022-11-29T00:12:50.819Z,98665.59
2022-11-29T00:13:53.661Z,98661.91
2022-11-29T00:14:56.623Z,98664.22
2022-11-29T00:16:04.760Z,98662.22
2022-11-29T00:17:07.982Z,98654.31
2022-11-29T00:18:10.946Z,98661.91
2022-11-29T00:19:14.260Z,98658.47
2022-11-29T00:20:17.344Z,98653.84
2022-11-29T00:21:20.745Z,98656.47
2022-11-29T00:22:25.552Z,98653.25
2022-11-29T00:23:28.359Z,98651.59
2022-11-29T00:24:32.793Z,98650.91
2022-11-29T00:25:35.723Z,98652.03
2022-11-29T00:26:38.740Z,98650.41
2022-11-29T00:27:42.440Z,98654.00
2022-11-29T00:28:45.432Z,98650.84
2022-11-29T00:29:48.465Z,98658.72
2022-11-29T00:30:51.541Z,98646.31
2022-11-29T00:31:54.828Z,98650.81
2022-11-29T00:32:57.793Z,98648.25
2022-11-29T00:34:03.110Z,98656.62
2022-11-29T00:35:09.688Z,98638.34
2022-11-29T00:36:13.540Z,98648.59
2022-11-29T00:37:16.493Z,98646.59
2022-11-29T00:38:19.775Z,98646.38
2022-11-29T00:39:22.951Z,98649.47
2022-11-29T00:40:26.065Z,98639.28
2022-11-29T00:41:29.343Z,98648.59
2022-11-29T00:42:32.766Z,98637.00
2022-11-29T00:43:36.658Z,98640.88
2022-11-29T00:44:39.462Z,98646.81
2022-11-29T00:45:42.823Z,98651.69
2022-11-29T00:46:45.751Z,98648.09
2022-11-29T00:47:48.730Z,98643.97
2022-11-29T00:48:51.689Z,98646.38
2022-11-29T00:49:54.659Z,98654.56
2022-11-29T00:50:57.674Z,98641.22
2022-11-29T00:52:00.572Z,98639.16
2022-11-29T00:53:03.395Z,98652.63
2022-11-29T00:54:06.485Z,98645.75
2022-11-29T00:55:09.739Z,98644.66
2022-11-29T00:56:13.055Z,98641.22
2022-11-29T00:57:15.892Z,98640.88
2022-11-29T00:58:20.205Z,98636.31
2022-11-29T00:59:23.345Z,98638.44
2022-11-29T01:00:26.266Z,98639.00
2022-11-29T01:01:29.480Z,98635.22
2022-11-29T01:02:32.423Z,98641.59
2022-11-29T01:03:35.599Z,98637.81
2022-11-29T01:04:38.836Z,98638.44
2022-11-29T01:05:43.197Z,98634.44
2022-11-29T01:06:46.100Z,98636.59
2022-11-29T01:07:49.409Z,98630.78
2022-11-29T01:08:52.328Z,98638.66
2022-11-29T01:09:55.343Z,98632.19
2022-11-29T01:11:14.683Z,98636.94
2022-11-29T01:12:17.499Z,98629.00
2022-11-29T01:13:20.673Z,98635.03
2022-11-29T01:14:23.701Z,98638.16
2022-11-29T01:15:26.736Z,98630.78
2022-11-29T01:16:31.501Z,98636.94
2022-11-29T01:17:39.265Z,98631.78
2022-11-29T01:18:42.660Z,98640.44
2022-11-29T01:19:50.640Z,98641.81
2022-11-29T01:21:12.940Z,98636.75
2022-11-29T01:22:15.821Z,98634.44
2022-11-29T01:23:18.605Z,98634.50
2022-11-29T01:24:22.631Z,98630.22
2022-11-29T01:25:25.554Z,98627.28
2022-11-29T01:26:31.724Z,98633.72
2022-11-29T01:27:35.972Z,98633.50
2022-11-29T01:28:39.793Z,98629.63
2022-11-29T01:29:42.740Z,98633.28
2022-11-29T01:30:47.176Z,98631.84
2022-11-29T01:31:50.955Z,98634.66
2022-11-29T01:32:53.855Z,98628.53
2022-11-29T01:33:59.135Z,98628.19
2022-11-29T01:35:01.977Z,98636.00
2022-11-29T01:36:05.935Z,98633.50
2022-11-29T01:37:09.097Z,98626.19
2022-11-29T01:38:11.959Z,98620.84
2022-11-29T01:39:14.866Z,98620.94
2022-11-29T01:40:21.537Z,98620.41
2022-11-29T01:41:27.027Z,98618.75
2022-11-29T01:42:29.906Z,98615.28
2022-11-29T01:43:34.174Z,98618.97
2022-11-29T01:44:38.215Z,98615.19
2022-11-29T01:45:41.478Z,98620.16
2022-11-29T01:46:46.936Z,98610.97
2022-11-29T01:47:52.539Z,98623.34
2022-11-29T01:49:00.739Z,98617.03
2022-11-29T01:50:04.267Z,98623.47
2022-11-29T01:51:07.704Z,98625.50
2022-11-29T01:52:22.300Z,98626.28
2022-11-29T01:53:25.227Z,98627.41
2022-11-29T01:54:30.338Z,98628.00
2022-11-29T01:55:33.776Z,98618.75
2022-11-29T01:56:39.085Z,98627.22
2022-11-29T01:57:43.121Z,98629.97
2022-11-29T01:58:46.428Z,98625.12
2022-11-29T01:59:52.854Z,98626.44
2022-11-29T02:00:57.531Z,98629.00
2022-11-29T02:02:12.514Z,98627.75
2022-11-29T02:03:18.196Z,98623.53
2022-11-29T02:04:21.213Z,98632.47
2022-11-29T02:05:25.953Z,98632.38
2022-11-29T02:06:30.366Z,98639.94
2022-11-29T02:07:33.708Z,98632.78
2022-11-29T02:08:42.563Z,98636.19
2022-11-29T02:09:45.474Z,98638.00
2022-11-29T02:11:06.061Z,98630.78
2022-11-29T02:12:27.338Z,98624.25
2022-11-29T02:14:01.547Z,98634.44
2022-11-29T02:15:45.786Z,98627.91
2022-11-29T02:17:03.977Z,98634.50
2022-11-29T02:18:19.749Z,98637.25
2022-11-29T02:19:55.817Z,98635.06
2022-11-29T02:21:28.067Z,98622.06
2022-11-29T02:22:52.029Z,98628.50
2022-11-29T02:24:03.581Z,98641.59
2022-11-29T02:25:25.105Z,98636.66
2022-11-29T02:26:58.493Z,98639.66
2022-11-29T02:28:28.694Z,98642.81
2022-11-29T02:29:54.700Z,98638.84
2022-11-29T02:31:12.325Z,98642.59
2022-11-29T02:32:53.385Z,98639.66
2022-11-29T02:34:15.176Z,98653.63
2022-11-29T02:35:32.975Z,98637.22
2022-11-29T02:36:38.336Z,98642.09
2022-11-29T02:38:10.819Z,98641.59
2022-11-29T02:39:28.338Z,98636.00
2022-11-29T02:40:35.822Z,98634.94
2022-11-29T02:41:56.424Z,98647.31
2022-11-29T02:43:05.269Z,98631.63
2022-11-29T02:44:49.666Z,98642.88
2022-11-29T02:46:16.692Z,98634.38
2022-11-29T02:47:46.456Z,98637.09
2022-11-29T02:49:20.377Z,98645.25
2022-11-29T02:50:50.575Z,98641.59
2022-11-29T02:52:02.924Z,98643.72
2022-11-29T02:53:21.877Z,98641.00
2022-11-29T02:54:45.270Z,98632.72
2022-11-29T02:56:23.938Z,98638.81
2022-11-29T02:57:49.500Z,98643.47
2022-11-29T02:59:02.136Z,98644.53
2022-11-29T03:00:05.303Z,98641.38
2022-11-29T03:01:13.318Z,98648.47
2022-11-29T03:03:01.296Z,98648.12
2022-11-29T03:04:22.537Z,98650.50
2022-11-29T03:05:28.055Z,98634.50
2022-11-29T03:06:41.018Z,98646.47
2022-11-29T03:08:14.739Z,98648.88
2022-11-29T03:09:43.905Z,98652.97
2022-11-29T03:11:01.936Z,98647.13
2022-11-29T03:12:23.458Z,98639.06
2022-11-29T03:14:06.707Z,98641.78
2022-11-29T03:15:34.609Z,98645.16
2022-11-29T03:17:12.732Z,98646.44
2022-11-29T03:18:46.547Z,98638.56
2022-11-29T03:20:08.017Z,98649.03
2022-11-29T03:21:23.134Z,98631.81
2022-11-29T03:22:37.896Z,98643.34
2022-11-29T03:24:01.893Z,98650.19
2022-11-29T03:25:19.781Z,98650.59
2022-11-29T03:26:42.741Z,98639.44
2022-11-29T03:27:56.302Z,98636.75
2022-11-29T03:29:18.065Z,98639.94
2022-11-29T03:30:22.026Z,98639.25
2022-11-29T03:31:33.939Z,98644.53
2022-11-29T03:33:21.920Z,98640.81
2022-11-29T03:34:43.685Z,98645.88
2022-11-29T03:36:16.171Z,98639.78
2022-11-29T03:37:26.337Z,98640.53
2022-11-29T03:38:39.216Z,98637.94
2022-11-29T03:39:50.634Z,98641.75
2022-11-29T03:41:20.245Z,98644.00
2022-11-29T03:42:53.460Z,98640.66
2022-11-29T03:44:15.829Z,98646.50
2022-11-29T03:45:25.799Z,98647.34
2022-11-29T03:46:38.102Z,98640.12
2022-11-29T03:48:04.176Z,98640.78
2022-11-29T03:49:16.539Z,98643.13
2022-11-29T03:50:32.863Z,98660.81
2022-11-29T03:51:35.789Z,98642.41
2022-11-29T03:52:56.576Z,98653.66
2022-11-29T03:54:07.909Z,98651.13
2022-11-29T03:55:29.579Z,98659.13
2022-11-29T03:56:35.746Z,98654.78
2022-11-29T03:58:03.509Z,98654.38
2022-11-29T03:59:28.065Z,98659.34
2022-11-29T04:00:57.137Z,98658.72
2022-11-29T04:02:02.659Z,98660.97
2022-11-29T04:03:47.022Z,98668.50
2022-11-29T04:04:52.453Z,98654.59
2022-11-29T04:06:07.589Z,98649.56
2022-11-29T04:07:16.811Z,98656.50
2022-11-29T04:08:41.500Z,98657.72
2022-11-29T04:10:15.538Z,98665.00
2022-11-29T04:11:18.546Z,98666.06
2022-11-29T04:12:58.776Z,98664.28
2022-11-29T04:14:37.624Z,98666.63
2022-11-29T04:16:11.091Z,98670.66
2022-11-29T04:17:52.176Z,98665.22
2022-11-29T04:19:07.059Z,98668.44
2022-11-29T04:20:41.091Z,98659.41
2022-11-29T04:22:20.894Z,98668.09
2022-11-29T04:23:35.935Z,98665.88
2022-11-29T04:25:08.187Z,98657.25
2022-11-29T04:26:35.441Z,98661.06
2022-11-29T04:28:06.654Z,98667.00
2022-11-29T04:29:15.775Z,98671.94
2022-11-29T04:30:26.298Z,98674.56
2022-11-29T04:31:49.415Z,98671.16
2022-11-29T04:33:26.738Z,98669.16
2022-11-29T04:35:10.844Z,98671.69
2022-11-29T04:36:38.746Z,98666.53
2022-11-29T04:38:13.457Z,98667.63
2022-11-29T04:39:19.782Z,98663.59
2022-11-29T04:41:00.221Z,98667.91
2022-11-29T04:42:21.536Z,98664.12
2022-11-29T04:43:42.297Z,98667.97
2022-11-29T04:44:59.585Z,98668.00
2022-11-29T04:46:36.246Z,98666.78
2022-11-29T04:48:05.396Z,98670.97
2022-11-29T04:49:53.339Z,98672.72
2022-11-29T04:51:27.637Z,98678.28
2022-11-29T04:53:03.646Z,98676.72
2022-11-29T04:54:45.484Z,98676.22
2022-11-29T04:56:09.580Z,98681.38
2022-11-29T04:57:30.421Z,98676.66
2022-11-29T04:58:52.061Z,98691.59
2022-11-29T05:00:25.031Z,98689.19
2022-11-29T05:03:56.936Z,98680.97
2022-11-29T05:05:33.759Z,98691.84
2022-11-29T05:07:09.259Z,98685.94
2022-11-29T05:08:43.802Z,98700.78
2022-11-29T05:10:00.106Z,98692.03
2022-11-29T05:11:09.748Z,98702.56
2022-11-29T05:12:22.397Z,98702.44
2022-11-29T05:13:49.901Z,98697.28
2022-11-29T05:15:19.713Z,98695.88
2022-11-29T05:16:37.484Z,98694.88
2022-11-29T05:18:05.078Z,98689.69
2022-11-29T05:19:30.103Z,98685.28
2022-11-29T05:20:44.908Z,98697.00
2022-11-29T05:22:11.894Z,98694.44
2022-11-29T05:23:23.476Z,98697.75
2022-11-29T05:24:41.842Z,98694.56
2022-11-29T05:26:20.967Z,98697.16
2022-11-29T05:27:42.182Z,98692.88
2022-11-29T05:28:54.075Z,98693.50
2022-11-29T05:30:05.958Z,98691.63
2022-11-29T05:31:19.493Z,98698.09
2022-11-29T05:32:35.901Z,98703.91
2022-11-29T05:34:15.985Z,98696.41
2022-11-29T05:35:27.934Z,98695.44
2022-11-29T05:36:41.536Z,98693.66
2022-11-29T05:37:52.151Z,98698.63
2022-11-29T05:39:12.234Z,98700.78
2022-11-29T05:40:33.452Z,98705.56
2022-11-29T05:42:13.420Z,98703.53
2022-11-29T05:43:47.941Z,98701.34
2022-11-29T05:45:30.856Z,98705.37
2022-11-29T05:46:36.905Z,98715.50
2022-11-29T05:47:48.424Z,98710.53
2022-11-29T05:49:01.490Z,98705.37
2022-11-29T05:50:07.671Z,98708.38
2022-11-29T05:51:29.752Z,98709.53
2022-11-29T05:52:47.634Z,98710.72
2022-11-29T05:54:17.200Z,98709.69
2022-11-29T05:55:32.255Z,98717.47
2022-11-29T05:56:59.606Z,98709.88
2022-11-29T05:58:16.640Z,98720.16
2022-11-29T05:59:24.896Z,98701.50
2022-11-29T06:00:49.793Z,98712.44
2022-11-29T06:02:11.252Z,98709.06
2022-11-29T06:03:41.773Z,98717.06
2022-11-29T06:05:04.300Z,98721.19
2022-11-29T06:06:14.442Z,98725.50
2022-11-29T06:07:55.110Z,98722.66
2022-11-29T06:09:09.989Z,98723.81
2022-11-29T06:10:18.866Z,98718.56
2022-11-29T06:12:20.791Z,98723.06
2022-11-29T06:13:36.561Z,98730.38
2022-11-29T06:15:17.807Z,98727.44
2022-11-29T06:16:32.426Z,98730.06
2022-11-29T06:18:02.255Z,98733.59
2022-11-29T06:19:46.627Z,98726.84
2022-11-29T06:20:55.459Z,98728.44
2022-11-29T06:22:21.571Z,98733.53
2022-11-29T06:23:52.006Z,98731.44
2022-11-29T06:25:23.382Z,98735.22
2022-11-29T06:26:52.638Z,98737.78
2022-11-29T06:28:10.720Z,98740.38
2022-11-29T06:29:13.521Z,98737.13
2022-11-29T06:30:21.056Z,98738.56
2022-11-29T06:31:28.731Z,98734.97
2022-11-29T06:32:45.570Z,98739.25
2022-11-29T06:34:11.360Z,98738.88
2022-11-29T06:35:35.907Z,98735.97
2022-11-29T06:36:52.345Z,98751.56
2022-11-29T06:37:58.799Z,98739.94
2022-11-29T06:39:02.411Z,98742.94
2022-11-29T06:40:12.376Z,98742.00
2022-11-29T06:41:23.515Z,98743.63
2022-11-29T06:42:26.460Z,98749.00
2022-11-29T06:43:30.196Z,98745.41
2022-11-29T06:44:33.318Z,98747.44
2022-11-29T06:45:36.471Z,98745.50
2022-11-29T06:46:56.930Z,98748.84
2022-11-29T06:48:04.260Z,98750.09
2022-11-29T06:49:25.535Z,98742.94
2022-11-29T06:50:56.520Z,98746.53
2022-11-29T06:52:20.828Z,98741.09
2022-11-29T06:53:52.929Z,98747.97
2022-11-29T06:55:20.285Z,98745.69
2022-11-29T06:56:36.435Z,98737.56
2022-11-29T06:58:01.655Z,98751.66
2022-11-29T06:59:23.028Z,98750.44
2022-11-29T07:00:31.953Z,98748.44
2022-11-29T07:01:52.242Z,98748.25
2022-11-29T07:03:27.461Z,98753.22
2022-11-29T07:05:01.762Z,98759.06
2022-11-29T07:06:27.642Z,98751.16
2022-11-29T07:07:34.905Z,98751.75
2022-11-29T07:08:39.911Z,98759.59
2022-11-29T07:09:43.933Z,98757.41
2022-11-29T07:10:50.273Z,98756.31
2022-11-29T07:11:53.740Z,98759.53
2022-11-29T07:12:56.837Z,98758.53
2022-11-29T07:14:00.027Z,98755.16
2022-11-29T07:15:03.281Z,98756.00
2022-11-29T07:16:30.914Z,98754.28
2022-11-29T07:17:45.868Z,98757.81
2022-11-29T07:18:57.522Z,98760.84
2022-11-29T07:20:12.595Z,98758.97
2022-11-29T07:21:23.981Z,98759.78
2022-11-29T07:22:48.731Z,98757.69
2022-11-29T07:24:03.943Z,98760.63
2022-11-29T07:25:46.451Z,98767.53
2022-11-29T07:27:08.165Z,98766.78
2022-11-29T07:28:47.332Z,98762.97
2022-11-29T07:30:12.774Z,98758.47
2022-11-29T07:31:46.159Z,98754.75
2022-11-29T07:33:07.948Z,98758.69
2022-11-29T07:34:32.450Z,98765.87
2022-11-29T07:36:07.268Z,98765.75
2022-11-29T07:37:10.400Z,98763.16
2022-11-29T07:38:46.715Z,98771.44
2022-11-29T07:40:26.651Z,98772.38
2022-11-29T07:41:46.745Z,98767.53
2022-11-29T07:43:08.237Z,98773.44
2022-11-29T07:44:17.030Z,98769.13
2022-11-29T07:45:32.714Z,98771.81
2022-11-29T07:46:35.560Z,98771.81
2022-11-29T07:47:38.602Z,98777.38
2022-11-29T07:48:41.440Z,98770.69
2022-11-29T07:49:44.225Z,98775.22
2022-11-29T07:50:47.203Z,98776.59
2022-11-29T07:51:50.190Z,98778.84
2022-11-29T07:52:54.582Z,98771.47
2022-11-29T07:53:57.627Z,98768.59
2022-11-29T07:55:00.561Z,98773.78
2022-11-29T07:56:03.482Z,98782.25
2022-11-29T07:57:06.683Z,98770.81
2022-11-29T07:58:13.895Z,98782.06
2022-11-29T07:59:17.139Z,98774.75
2022-11-29T08:00:21.071Z,98774.37
2022-11-29T08:01:24.265Z,98772.38
2022-11-29T08:02:29.563Z,98773.22
2022-11-29T08:03:33.291Z,98775.91
2022-11-29T08:04:42.294Z,98772.53
2022-11-29T08:05:48.767Z,98774.56
2022-11-29T08:06:51.766Z,98774.91
2022-11-29T08:07:56.274Z,98775.06
2022-11-29T08:09:00.439Z,98773.94
2022-11-29T08:10:06.297Z,98779.75
2022-11-29T08:11:13.123Z,98776.81
2022-11-29T08:12:16.428Z,98776.66
2022-11-29T08:13:21.101Z,98778.31
2022-11-29T08:14:24.750Z,98782.72
2022-11-29T08:15:27.758Z,98782.84
2022-11-29T08:16:30.702Z,98776.06
2022-11-29T08:17:33.464Z,98783.72
2022-11-29T08:18:39.289Z,98773.56
2022-11-29T08:19:42.109Z,98786.31
2022-11-29T08:20:46.484Z,98777.81
2022-11-29T08:21:51.408Z,98775.81
2022-11-29T08:22:56.450Z,98773.53
2022-11-29T08:23:59.701Z,98772.88
2022-11-29T08:25:03.042Z,98781.44
2022-11-29T08:26:06.246Z,98771.84
2022-11-29T08:27:09.280Z,98774.22
2022-11-29T08:28:12.446Z,98778.22
2022-11-29T08:29:15.706Z,98776.69
2022-11-29T08:30:22.360Z,98770.22
2022-11-29T08:31:25.349Z,98781.22
2022-11-29T08:32:29.040Z,98769.97
2022-11-29T08:33:32.257Z,98777.28
2022-11-29T08:34:38.768Z,98775.34
2022-11-29T08:35:42.412Z,98770.81
2022-11-29T08:36:45.278Z,98769.69
2022-11-29T08:37:48.415Z,98767.41
2022-11-29T08:38:57.181Z,98775.28
2022-11-29T08:40:04.881Z,98771.12
2022-11-29T08:41:10.194Z,98771.41
2022-11-29T08:42:12.984Z,98769.41
2022-11-29T08:43:15.715Z,98768.75
2022-11-29T08:44:18.703Z,98770.19
2022-11-29T08:45:21.460Z,98774.19
2022-11-29T08:46:44.331Z,98769.59
2022-11-29T08:47:47.214Z,98765.56
2022-11-29T08:48:50.201Z,98766.47
2022-11-29T08:50:02.119Z,98774.56
2022-11-29T08:51:06.286Z,98778.41
2022-11-29T08:52:27.655Z,98774.56
2022-11-29T08:53:43.062Z,98774.22
2022-11-29T08:54:46.058Z,98770.31
2022-11-29T08:55:48.956Z,98780.87
2022-11-29T08:58:16.152Z,98775.88
2022-11-29T08:59:19.135Z,98771.69
2022-11-29T09:00:21.903Z,98772.19
2022-11-29T09:01:24.901Z,98777.06
2022-11-29T09:02:28.109Z,98776.44
2022-11-29T09:03:52.391Z,98774.19
2022-11-29T09:04:55.199Z,98781.31
2022-11-29T09:05:58.145Z,98776.72
2022-11-29T09:07:01.491Z,98778.00
2022-11-29T09:08:04.931Z,98775.50
2022-11-29T09:09:08.041Z,98779.69
2022-11-29T09:10:12.466Z,98771.47
2022-11-29T09:11:18.434Z,98770.03
2022-11-29T09:12:21.575Z,98780.47
2022-11-29T09:13:24.883Z,98770.28
2022-11-29T09:14:28.016Z,98772.44
2022-11-29T09:15:30.990Z,98777.78
2022-11-29T09:16:36.667Z,98775.22
2022-11-29T09:17:39.549Z,98767.88
2022-11-29T09:18:45.953Z,98770.19
2022-11-29T09:19:51.739Z,98761.50
2022-11-29T09:20:54.744Z,98761.25
2022-11-29T09:21:57.692Z,98759.50
2022-11-29T09:23:01.134Z,98757.47
2022-11-29T09:24:06.706Z,98759.44
2022-11-29T09:25:09.891Z,98756.59
2022-11-29T09:26:18.299Z,98751.97
2022-11-29T09:27:21.831Z,98749.72
2022-11-29T09:28:24.938Z,98752.56
2022-11-29T09:29:27.978Z,98743.13
2022-11-29T09:30:32.019Z,98752.06
2022-11-29T09:31:35.667Z,98750.50
2022-11-29T09:32:38.658Z,98752.69
2022-11-29T09:33:42.014Z,98747.94
2022-11-29T09:34:45.078Z,98754.81
2022-11-29T09:35:48.515Z,98751.31
2022-11-29T09:36:51.592Z,98752.31
2022-11-29T09:37:54.441Z,98751.97
2022-11-29T09:38:58.943Z,98754.81
2022-11-29T09:40:02.200Z,98750.28
2022-11-29T09:41:48.594Z,98754.56
2022-11-29T09:42:59.193Z,98751.84
2022-11-29T09:44:09.076Z,98755.62
2022-11-29T09:45:20.041Z,98748.38
2022-11-29T09:46:22.930Z,98748.84
2022-11-29T09:47:38.228Z,98745.28
2022-11-29T09:49:13.606Z,98745.06
2022-11-29T09:50:36.302Z,98755.59
2022-11-29T09:52:02.483Z,98753.09
2022-11-29T09:53:38.273Z,98748.25
2022-11-29T09:55:25.652Z,98756.19
2022-11-29T09:56:46.233Z,98749.78
2022-11-29T09:57:50.549Z,98751.41
2022-11-29T09:59:00.627Z,98750.13
2022-11-29T10:00:07.600Z,98745.31
2022-11-29T10:01:19.410Z,98752.09
2022-11-29T10:02:47.909Z,98744.25
2022-11-29T10:03:54.977Z,98742.97
2022-11-29T10:05:07.819Z,98740.59
2022-11-29T10:06:16.920Z,98739.47
2022-11-29T10:07:33.783Z,98726.34
2022-11-29T10:08:43.204Z,98735.59
2022-11-29T10:10:03.924Z,98740.22
2022-11-29T10:11:42.308Z,98734.47
2022-11-29T10:12:50.510Z,98730.41
2022-11-29T10:13:59.952Z,98730.56
2022-11-29T10:15:09.775Z,98727.75
2022-11-29T10:16:19.835Z,98728.31
2022-11-29T10:17:52.375Z,98729.06
2022-11-29T10:19:03.283Z,98726.59
2022-11-29T10:20:06.087Z,98723.62
2022-11-29T10:21:17.105Z,98720.78
2022-11-29T10:22:49.665Z,98716.94
2022-11-29T10:23:58.041Z,98703.28
2022-11-29T10:25:03.846Z,98719.72
2022-11-29T10:26:08.440Z,98712.44
2022-11-29T10:27:24.089Z,98712.16
2022-11-29T10:28:33.257Z,98710.22
2022-11-29T10:29:36.195Z,98706.84
2022-11-29T10:30:40.962Z,98710.03
2022-11-29T10:31:49.787Z,98707.19
2022-11-29T10:32:58.226Z,98706.63
2022-11-29T10:34:08.268Z,98702.81
2022-11-29T10:35:16.708Z,98700.44
2022-11-29T10:36:33.801Z,98704.63
2022-11-29T10:37:36.901Z,98707.53
2022-11-29T10:38:39.825Z,98702.56
2022-11-29T10:39:57.726Z,98704.16
2022-11-29T10:41:12.772Z,98694.69
2022-11-29T10:42:39.397Z,98707.22
2022-11-29T10:43:43.299Z,98692.41
2022-11-29T10:44:46.532Z,98700.16
2022-11-29T10:45:54.700Z,98702.00
2022-11-29T10:47:00.688Z,98708.72
2022-11-29T10:48:06.988Z,98708.91
2022-11-29T10:49:20.035Z,98709.59
2022-11-29T10:50:30.098Z,98700.06
2022-11-29T10:51:34.218Z,98707.06
2022-11-29T10:52:37.667Z,98705.97
2022-11-29T10:53:40.553Z,98709.03
2022-11-29T10:54:44.537Z,98706.91
2022-11-29T10:55:53.779Z,98705.16
2022-11-29T10:56:59.566Z,98703.72
2022-11-29T10:58:29.452Z,98702.28
2022-11-29T10:59:33.453Z,98700.13
2022-11-29T11:00:51.425Z,98700.13
2022-11-29T11:01:55.039Z,98700.47
2022-11-29T11:03:27.627Z,98700.56
2022-11-29T11:04:37.518Z,98696.56
2022-11-29T11:05:40.619Z,98705.06
2022-11-29T11:06:51.644Z,98711.66
2022-11-29T11:07:58.260Z,98710.91
2022-11-29T11:09:13.325Z,98702.59
2022-11-29T11:10:27.462Z,98708.06
2022-11-29T11:11:34.233Z,98707.38
2022-11-29T11:12:37.334Z,98706.88
2022-11-29T11:13:41.461Z,98702.22
2022-11-29T11:14:45.812Z,98704.81
2022-11-29T11:15:48.981Z,98707.22
2022-11-29T11:16:52.548Z,98704.03
2022-11-29T11:18:06.613Z,98692.56
2022-11-29T11:19:32.836Z,98695.94
2022-11-29T11:20:38.528Z,98704.50
2022-11-29T11:21:41.342Z,98697.75
2022-11-29T11:22:47.811Z,98699.09
2022-11-29T11:24:03.424Z,98707.09
2022-11-29T11:25:28.869Z,98711.34
2022-11-29T11:26:45.776Z,98704.41
2022-11-29T11:27:48.852Z,98702.09
2022-11-29T11:28:55.855Z,98694.72
2022-11-29T11:29:59.798Z,98697.16
2022-11-29T11:31:06.039Z,98693.59
2022-11-29T11:32:17.777Z,98703.78
2022-11-29T11:33:34.518Z,98703.50
2022-11-29T11:34:39.137Z,98709.47
2022-11-29T11:35:41.959Z,98701.44
2022-11-29T11:36:44.819Z,98704.13
2022-11-29T11:37:56.926Z,98706.81
2022-11-29T11:39:19.533Z,98719.78
2022-11-29T11:40:30.146Z,98725.12
2022-11-29T11:41:57.103Z,98716.34
2022-11-29T11:43:02.053Z,98714.78
2022-11-29T11:44:14.892Z,98719.28
2022-11-29T11:45:39.003Z,98718.50
2022-11-29T11:46:50.629Z,98719.63
2022-11-29T11:47:57.334Z,98712.03
2022-11-29T11:49:00.446Z,98716.50
2022-11-29T11:50:03.701Z,98714.94
2022-11-29T11:51:19.202Z,98725.16
2022-11-29T11:52:39.877Z,98719.91
2022-11-29T11:53:49.286Z,98725.69
2022-11-29T11:54:58.017Z,98721.53
2022-11-29T11:56:06.610Z,98716.12
2022-11-29T11:57:18.254Z,98722.47
2022-11-29T11:58:30.938Z,98716.12
2022-11-29T11:59:34.123Z,98715.28
2022-11-29T12:02:25.792Z,98715.88
2022-11-29T12:03:50.097Z,98716.84
2022-11-29T12:04:59.392Z,98722.97
2022-11-29T12:06:37.637Z,98720.28
2022-11-29T12:08:08.810Z,98720.34
2022-11-29T12:09:39.692Z,98715.28
2022-11-29T12:10:54.306Z,98725.84
2022-11-29T12:12:12.421Z,98724.69
2022-11-29T12:13:24.445Z,98715.72
2022-11-29T12:14:47.154Z,98715.34
2022-11-29T12:15:52.193Z,98715.34
2022-11-29T12:17:04.406Z,98719.03
2022-11-29T12:18:21.384Z,98714.25
2022-11-29T12:19:35.997Z,98717.38
2022-11-29T12:20:54.321Z,98724.59
2022-11-29T12:22:03.545Z,98714.94
2022-11-29T12:23:09.576Z,98719.72
2022-11-29T12:24:12.495Z,98717.44
2022-11-29T12:25:21.432Z,98722.50
2022-11-29T12:27:54.086Z,98709.81
2022-11-29T12:28:57.077Z,98709.00
2022-11-29T12:30:00.087Z,98709.16
2022-11-29T12:31:35.632Z,98716.12
2022-11-29T12:33:03.712Z,98718.22
2022-11-29T12:34:26.770Z,98708.31
2022-11-29T12:35:32.399Z,98707.13
2022-11-29T12:36:57.004Z,98711.81
2022-11-29T12:38:09.933Z,98706.75
2022-11-29T12:39:52.931Z,98710.56
2022-11-29T12:41:22.809Z,98713.59
2022-11-29T12:42:40.220Z,98715.78
2022-11-29T12:44:05.479Z,98709.00
2022-11-29T12:45:14.619Z,98711.00
2022-11-29T12:46:26.288Z,98704.03
2022-11-29T12:47:51.725Z,98710.88
2022-11-29T12:49:13.452Z,98708.38
2022-11-29T12:50:47.585Z,98708.56
2022-11-29T12:52:23.020Z,98712.81
2022-11-29T12:53:44.794Z,98706.03
2022-11-29T12:55:00.814Z,98699.16
2022-11-29T12:56:23.321Z,98705.91
2022-11-29T12:57:26.088Z,98705.94
2022-11-29T12:58:35.114Z,98712.47
2022-11-29T13:00:01.746Z,98703.38
2022-11-29T13:01:34.614Z,98706.31
2022-11-29T13:02:59.138Z,98700.66
2022-11-29T13:04:17.648Z,98699.28
2022-11-29T13:05:48.791Z,98693.88
2022-11-29T13:07:20.577Z,98693.00
2022-11-29T13:08:45.609Z,98694.25
2022-11-29T13:10:03.390Z,98703.09
2022-11-29T13:11:24.849Z,98696.31
2022-11-29T13:13:00.540Z,98690.00
2022-11-29T13:14:42.287Z,98685.03
2022-11-29T13:15:50.101Z,98690.81
2022-11-29T13:17:02.550Z,98691.50
2022-11-29T13:18:23.406Z,98685.44
2022-11-29T13:19:44.353Z,98691.50
2022-11-29T13:21:01.978Z,98699.50
2022-11-29T13:22:17.643Z,98700.84
2022-11-29T13:23:45.595Z,98694.28
2022-11-29T13:24:57.286Z,98696.00
2022-11-29T13:26:04.880Z,98697.91
2022-11-29T13:27:12.148Z,98691.94
2022-11-29T13:28:21.325Z,98688.22
2022-11-29T13:29:26.120Z,98698.56
2022-11-29T13:30:29.304Z,98704.87
2022-11-29T13:31:33.703Z,98688.00
2022-11-29T13:32:41.532Z,98697.91
2022-11-29T13:34:27.322Z,98694.22
2022-11-29T13:35:59.036Z,98695.34
2022-11-29T13:37:13.264Z,98701.66
2022-11-29T13:38:34.999Z,98697.16
2022-11-29T13:39:58.264Z,98697.75
2022-11-29T13:41:38.277Z,98706.06
2022-11-29T13:42:51.966Z,98706.50
2022-11-29T13:44:07.898Z,98706.50
2022-11-29T13:45:24.321Z,98709.09
2022-11-29T13:46:52.155Z,98703.47
2022-11-29T13:47:59.201Z,98712.37
2022-11-29T13:49:02.060Z,98702.12
2022-11-29T13:50:25.856Z,98709.78
2022-11-29T13:51:31.263Z,98711.16
2022-11-29T13:52:47.406Z,98707.28
2022-11-29T13:53:52.236Z,98705.28
2022-11-29T13:55:16.089Z,98706.75
2022-11-29T13:56:48.996Z,98709.56
2022-11-29T13:58:16.669Z,98713.59
2022-11-29T13:59:30.822Z,98711.00
2022-11-29T14:00:42.785Z,98710.69
2022-11-29T14:03:19.419Z,98713.37
2022-11-29T14:04:46.265Z,98712.69
2022-11-29T14:05:51.025Z,98706.84
2022-11-29T14:07:15.580Z,98714.72
2022-11-29T14:08:47.733Z,98713.37
2022-11-29T14:10:01.458Z,98712.34
2022-11-29T14:11:18.689Z,98714.38
2022-11-29T14:12:37.282Z,98712.69
2022-11-29T14:13:59.858Z,98705.09
2022-11-29T14:15:29.120Z,98720.75
2022-11-29T14:16:43.803Z,98710.00
2022-11-29T14:18:08.357Z,98709.31
2022-11-29T14:19:11.200Z,98711.97
2022-11-29T14:20:23.067Z,98706.37
2022-11-29T14:21:25.896Z,98715.09
2022-11-29T14:22:30.579Z,98716.25
2022-11-29T14:23:40.905Z,98715.25
2022-11-29T14:24:57.029Z,98707.69
2022-11-29T14:26:00.215Z,98711.56
2022-11-29T14:27:06.230Z,98708.66
2022-11-29T14:28:16.016Z,98716.03
2022-11-29T14:29:55.736Z,98710.34
2022-11-29T14:31:02.757Z,98712.56
2022-11-29T14:32:22.730Z,98719.81
2022-11-29T14:33:28.346Z,98708.94
2022-11-29T14:34:38.458Z,98718.09
2022-11-29T14:35:57.041Z,98710.00
2022-11-29T14:37:14.414Z,98713.87
2022-11-29T14:38:29.256Z,98717.88
2022-11-29T14:39:55.278Z,98718.50